Time;durP1;ratioP1;P1;durP2;ratioP2;P2;SDS_P1;SDS_P2;PMS_P1;PMS_P2;Temp;Humidity;BMP_temperature;BMP_pressure;BME280_temperature;BME280_humidity;BME280_pressure;Samples;Min_cycle;Max_cycle;Signal;HPM_P1;HPM_P2
2023/08/03 03:01:06;;;;;;;;;;;16.10;99.90;;;;;;5700209;23;19956;-80
2023/08/03 03:03:32;;;;;;;;;;;16.10;99.90;;;;;;4977903;28;20022;-80
2023/08/03 03:05:58;;;;;;;;;;;16.10;99.90;;;;;;4977842;28;19922;-80
2023/08/03 03:08:23;;;;;;;;;;;16.10;99.90;;;;;;4995428;28;19957;-81
2023/08/03 03:10:49;;;;;;;;;;;16.10;99.90;;;;;;5000197;28;19973;-80
2023/08/03 03:13:14;;;;;;;;;;;16.00;99.90;;;;;;4997049;28;19929;-81
2023/08/03 03:15:40;;;;;;;;;;;16.00;99.90;;;;;;4997781;28;19925;-82
2023/08/03 03:18:05;;;;;;;;;;;16.10;99.90;;;;;;4997381;28;19937;-81
2023/08/03 03:20:31;;;;;;;;;;;16.00;99.90;;;;;;4996930;28;19940;-80
2023/08/03 03:22:56;;;;;;;;;;;16.00;99.90;;;;;;4996933;28;19941;-80
2023/08/03 03:25:22;;;;;;;;;;;15.90;99.90;;;;;;5014799;28;19925;-80
2023/08/03 03:27:47;;;;;;;;;;;15.90;99.90;;;;;;5014755;28;20284;-81
2023/08/03 03:30:13;;;;;;;;;;;15.90;99.90;;;;;;4980950;28;19922;-79
2023/08/03 03:32:39;;;;;;;;;;;15.80;99.90;;;;;;4996868;28;20064;-80
2023/08/03 03:35:04;;;;;;;;;;;15.90;99.90;;;;;;4980485;28;19925;-81
2023/08/03 03:37:30;;;;;;;;;;;15.80;99.90;;;;;;4980857;28;20344;-80
2023/08/03 03:39:55;;;;;;;;;;;15.80;99.90;;;;;;4996941;28;19921;-82
2023/08/03 03:42:21;;;;;;;;;;;15.80;99.90;;;;;;4996541;28;19921;-81
2023/08/03 03:44:46;;;;;;;;;;;15.80;99.90;;;;;;4996515;28;19977;-80
2023/08/03 03:47:12;;;;;;;;;;;15.90;99.90;;;;;;4996552;28;19921;-81
2023/08/03 03:49:37;;;;;;;;;;;15.80;99.90;;;;;;4996565;28;19977;-81
2023/08/03 03:52:03;;;;;;;;;;;15.80;99.90;;;;;;4996621;28;19992;-81
2023/08/03 03:54:29;;;;;;;;;;;15.80;99.90;;;;;;5013218;28;19921;-79
2023/08/03 03:56:55;;;;;;;;;;;15.80;99.90;;;;;;4996794;28;20455;-80
2023/08/03 03:59:20;;;;;;;;;;;15.90;99.90;;;;;;4996718;28;19922;-80
2023/08/03 04:01:46;;;;;;;;;;;15.90;99.90;;;;;;5013620;28;19972;-81
2023/08/03 04:04:12;;;;;;;;;;;15.80;99.90;;;;;;5013757;28;19926;-81
2023/08/03 04:06:38;;;;;;;;;;;15.80;99.90;;;;;;4996199;28;20041;-80
2023/08/03 04:09:04;;;;;;;;;;;15.80;99.90;;;;;;5013901;28;19922;-82
2023/08/03 04:11:29;;;;;;;;;;;15.90;99.90;;;;;;5013793;28;19956;-80
2023/08/03 04:13:55;;;;;;;;;;;15.80;99.90;;;;;;5014058;28;19926;-81
2023/08/03 04:16:20;;;;;;;;;;;15.90;99.90;;;;;;5014546;28;19922;-80
2023/08/03 04:18:46;;;;;;;;;;;15.80;99.90;;;;;;5014429;28;19993;-81
2023/08/03 04:21:12;;;;;;;;;;;15.80;99.90;;;;;;5014394;28;19929;-81
2023/08/03 04:23:37;;;;;;;;;;;15.80;99.90;;;;;;4979925;28;20376;-80
2023/08/03 04:26:03;;;;;;;;;;;15.80;99.90;;;;;;4996766;28;19921;-83
2023/08/03 04:28:28;;;;;;;;;;;15.80;99.90;;;;;;5014772;28;19945;-81
2023/08/03 04:30:54;;;;;;;;;;;15.80;99.90;;;;;;4996675;28;19928;-81
2023/08/03 04:33:20;;;;;;;;;;;15.80;99.90;;;;;;5014412;28;19957;-79
2023/08/03 04:35:45;;;;;;;;;;;15.80;99.90;;;;;;4996511;28;20288;-80
2023/08/03 04:38:11;;;;;;;;;;;15.70;99.90;;;;;;4996459;28;19968;-82
2023/08/03 04:40:36;;;;;;;;;;;15.80;99.90;;;;;;4997645;28;20016;-82
2023/08/03 04:43:02;;;;;;;;;;;15.80;99.90;;;;;;4996403;28;19933;-81
2023/08/03 04:45:28;;;;;;;;;;;15.80;99.90;;;;;;4997511;28;19929;-78
2023/08/03 04:47:53;;;;;;;;;;;15.80;99.90;;;;;;4981980;28;19937;-79
2023/08/03 04:50:21;;;;;;;;;;;15.80;99.90;;;;;;4996528;28;20381;-81
2023/08/03 04:52:47;;;;;;;;;;;15.80;99.90;;;;;;5013984;28;19921;-80
2023/08/03 04:55:12;;;;;;;;;;;15.80;99.90;;;;;;4996293;28;19928;-80
2023/08/03 04:57:38;;;;;;;;;;;15.90;99.90;;;;;;4979820;28;19922;-81
2023/08/03 05:00:03;;;;;;;;;;;15.80;99.90;;;;;;4995896;28;19922;-80
2023/08/03 05:02:29;;;;;;;;;;;15.90;99.90;;;;;;4996269;28;19921;-80
2023/08/03 05:04:55;;;;;;;;;;;15.90;99.90;;;;;;5014771;28;20444;-79
2023/08/03 05:07:20;;;;;;;;;;;15.90;99.90;;;;;;5017183;28;19929;-80
2023/08/03 05:09:46;;;;;;;;;;;15.90;99.90;;;;;;4999762;28;19928;-79
2023/08/03 05:12:12;;;;;;;;;;;15.90;99.90;;;;;;4999301;28;20005;-81
2023/08/03 05:14:37;;;;;;;;;;;15.90;99.90;;;;;;4999643;28;19921;-81
2023/08/03 05:17:03;;;;;;;;;;;15.90;99.90;;;;;;4983605;28;19965;-80
2023/08/03 05:19:29;;;;;;;;;;;15.90;99.90;;;;;;4999170;28;19922;-80
2023/08/03 05:21:54;;;;;;;;;;;15.90;99.90;;;;;;4999051;28;20001;-81
2023/08/03 05:24:20;;;;;;;;;;;15.90;99.90;;;;;;5017261;28;19925;-81
2023/08/03 05:26:45;;;;;;;;;;;15.90;99.90;;;;;;4999846;28;20408;-81
2023/08/03 05:29:11;;;;;;;;;;;15.90;99.90;;;;;;5016533;28;19921;-81
2023/08/03 05:31:36;;;;;;;;;;;16.00;99.90;;;;;;4999208;28;19921;-81
2023/08/03 05:34:02;;;;;;;;;;;16.00;99.90;;;;;;5015899;28;20304;-81
2023/08/03 05:36:28;;;;;;;;;;;16.00;99.90;;;;;;4998901;28;19926;-80
2023/08/03 05:38:53;;;;;;;;;;;16.10;99.90;;;;;;4999539;28;19928;-77
2023/08/03 05:41:21;;;;;;;;;;;16.10;99.90;;;;;;4998525;28;19922;-84
2023/08/03 05:43:47;;;;;;;;;;;16.10;99.90;;;;;;4998954;28;19925;-78
2023/08/03 05:46:13;;;;;;;;;;;16.10;99.90;;;;;;4998680;28;19928;-81
2023/08/03 05:48:39;;;;;;;;;;;16.10;99.90;;;;;;4999168;28;19922;-81
2023/08/03 05:51:05;;;;;;;;;;;16.10;99.90;;;;;;5016340;28;20277;-79
2023/08/03 05:53:31;;;;;;;;;;;16.10;99.90;;;;;;5016357;28;19922;-81
2023/08/03 05:55:57;;;;;;;;;;;16.10;99.90;;;;;;4998976;28;19928;-81
2023/08/03 05:58:22;;;;;;;;;;;16.20;99.90;;;;;;5016863;28;19922;-79
2023/08/03 06:00:49;;;;;;;;;;;16.10;99.90;;;;;;4998325;28;19956;-80
2023/08/03 06:03:16;;;;;;;;;;;16.20;99.90;;;;;;4998722;28;19959;-80
2023/08/03 06:05:46;;;;;;;;;;;16.20;99.90;;;;;;5016088;28;19922;-80
2023/08/03 06:08:18;;;;;;;;;;;16.20;99.90;;;;;;4981918;28;19956;-79
2023/08/03 06:11:04;;;;;;;;;;;16.30;99.90;;;;;;4998863;28;20349;-80
2023/08/03 06:13:38;;;;;;;;;;;16.20;99.90;;;;;;4998174;28;20077;-79
2023/08/03 06:16:08;;;;;;;;;;;16.30;99.90;;;;;;4998073;28;19992;-80
2023/08/03 06:18:40;;;;;;;;;;;16.30;99.90;;;;;;4998657;28;19921;-80
2023/08/03 06:21:05;;;;;;;;;;;16.30;99.90;;;;;;4998233;28;20030;-79
2023/08/03 06:23:31;;;;;;;;;;;16.40;99.90;;;;;;4998467;28;19925;-79
2023/08/03 06:25:58;;;;;;;;;;;16.50;99.90;;;;;;4998700;28;19921;-81
2023/08/03 06:28:23;;;;;;;;;;;16.50;99.90;;;;;;4998069;28;20064;-78
2023/08/03 06:30:51;;;;;;;;;;;16.60;99.90;;;;;;4997671;28;19965;-80
2023/08/03 06:33:17;;;;;;;;;;;16.60;99.90;;;;;;4998300;28;20025;-79
2023/08/03 06:35:44;;;;;;;;;;;16.70;99.90;;;;;;4998052;28;20008;-80
2023/08/03 06:38:14;;;;;;;;;;;16.70;99.90;;;;;;4998807;28;20265;-80
2023/08/03 06:40:41;;;;;;;;;;;16.80;99.90;;;;;;4997929;28;19972;-79
2023/08/03 06:43:07;;;;;;;;;;;16.80;99.90;;;;;;5015300;28;19926;-80
2023/08/03 06:45:33;;;;;;;;;;;16.80;99.90;;;;;;5015076;28;20391;-79
2023/08/03 06:47:59;;;;;;;;;;;16.80;99.90;;;;;;4997594;28;19922;-79
2023/08/03 06:50:25;;;;;;;;;;;16.90;99.90;;;;;;4997778;28;20015;-79
2023/08/03 06:52:51;;;;;;;;;;;16.90;99.90;;;;;;4997633;28;20428;-79
2023/08/03 06:55:17;;;;;;;;;;;16.90;99.90;;;;;;4998181;28;19922;-80
2023/08/03 06:57:43;;;;;;;;;;;17.00;99.90;;;;;;4997943;28;20012;-79
2023/08/03 07:00:09;;;;;;;;;;;17.00;99.90;;;;;;4997267;28;19968;-79
2023/08/03 07:02:34;;;;;;;;;;;17.10;99.90;;;;;;4997143;28;20345;-79
2023/08/03 07:05:00;;;;;;;;;;;17.10;99.90;;;;;;4997917;28;19977;-80
2023/08/03 07:07:27;;;;;;;;;;;17.20;99.90;;;;;;4980843;28;19921;-77
2023/08/03 07:09:53;;;;;;;;;;;17.20;99.90;;;;;;4997796;28;19948;-80
2023/08/03 07:12:19;;;;;;;;;;;17.20;99.90;;;;;;4999013;28;19949;-80
2023/08/03 07:14:44;;;;;;;;;;;17.20;99.90;;;;;;4998190;28;20261;-79
2023/08/03 07:17:10;;;;;;;;;;;17.20;99.90;;;;;;4998022;28;19985;-80
2023/08/03 07:19:35;;;;;;;;;;;17.30;99.90;;;;;;4997745;28;19932;-78
2023/08/03 07:22:01;;;;;;;;;;;17.40;99.90;;;;;;4997490;28;19964;-80
2023/08/03 07:24:28;;;;;;;;;;;17.40;99.90;;;;;;4998155;28;20020;-80
2023/08/03 07:26:54;;;;;;;;;;;17.40;99.90;;;;;;5015166;28;20364;-77
2023/08/03 07:29:20;;;;;;;;;;;17.40;99.90;;;;;;5015328;28;19972;-82
2023/08/03 07:31:46;;;;;;;;;;;17.40;99.90;;;;;;5014942;28;20341;-81
2023/08/03 07:34:11;;;;;;;;;;;17.50;99.90;;;;;;5015545;28;19959;-81
2023/08/03 07:36:37;;;;;;;;;;;17.50;99.90;;;;;;5015641;28;19925;-81
2023/08/03 07:39:02;;;;;;;;;;;17.60;99.90;;;;;;5015939;28;20011;-80
2023/08/03 07:41:28;;;;;;;;;;;17.60;99.90;;;;;;5016038;28;19922;-80
2023/08/03 07:43:53;;;;;;;;;;;17.60;99.90;;;;;;5015482;28;19925;-81
2023/08/03 07:46:19;;;;;;;;;;;17.60;99.90;;;;;;5015647;28;19921;-79
2023/08/03 07:48:45;;;;;;;;;;;17.70;99.90;;;;;;5015119;28;19925;-80
2023/08/03 07:51:14;;;;;;;;;;;17.70;99.90;;;;;;5014982;28;19921;-79
2023/08/03 07:53:39;;;;;;;;;;;17.70;99.90;;;;;;5014610;28;19968;-80
2023/08/03 07:56:15;;;;;;;;;;;17.60;99.90;;;;;;5015158;28;19932;-79
2023/08/03 07:58:40;;;;;;;;;;;17.70;99.90;;;;;;5015193;28;19925;-78
2023/08/03 08:01:06;;;;;;;;;;;17.70;99.90;;;;;;5014755;28;19921;-79
2023/08/03 08:03:32;;;;;;;;;;;17.90;99.90;;;;;;4997878;28;19933;-80
2023/08/03 08:06:08;;;;;;;;;;;17.90;99.90;;;;;;5015269;28;19922;-79
2023/08/03 08:08:33;;;;;;;;;;;17.90;99.90;;;;;;5014786;28;19928;-79
2023/08/03 08:10:59;;;;;;;;;;;17.90;99.90;;;;;;5014417;28;19922;-79
2023/08/03 08:13:24;;;;;;;;;;;17.90;99.90;;;;;;5015297;28;19921;-80
2023/08/03 08:15:50;;;;;;;;;;;17.90;99.90;;;;;;4997441;28;20049;-79
2023/08/03 08:18:15;;;;;;;;;;;18.00;99.90;;;;;;5014781;28;19925;-78
2023/08/03 08:20:41;;;;;;;;;;;18.00;99.90;;;;;;4980896;28;20021;-78
2023/08/03 08:23:07;;;;;;;;;;;18.10;99.90;;;;;;5014081;28;20003;-80
2023/08/03 08:25:33;;;;;;;;;;;18.10;99.90;;;;;;5015020;28;19922;-80
2023/08/03 08:27:58;;;;;;;;;;;18.20;99.90;;;;;;5014325;28;20381;-80
2023/08/03 08:30:24;;;;;;;;;;;18.20;99.90;;;;;;4997696;28;19921;-81
2023/08/03 08:32:49;;;;;;;;;;;18.30;99.90;;;;;;4997093;28;19922;-80
2023/08/03 08:35:15;;;;;;;;;;;18.30;99.90;;;;;;5014336;28;19925;-80
2023/08/03 08:37:40;;;;;;;;;;;18.30;99.90;;;;;;4997399;28;20265;-81
2023/08/03 08:40:11;;;;;;;;;;;18.30;99.90;;;;;;5016469;28;19925;-80
2023/08/03 08:42:37;;;;;;;;;;;18.40;99.90;;;;;;5018899;28;19925;-79
2023/08/03 08:45:03;;;;;;;;;;;18.40;99.90;;;;;;5001065;28;20417;-79
2023/08/03 08:47:29;;;;;;;;;;;18.60;99.90;;;;;;5000051;28;19928;-79
2023/08/03 08:49:55;;;;;;;;;;;18.60;99.90;;;;;;5000893;28;19936;-80
2023/08/03 08:52:21;;;;;;;;;;;18.70;99.90;;;;;;5018497;28;19925;-79
2023/08/03 08:54:47;;;;;;;;;;;18.80;99.90;;;;;;5018545;28;19944;-81
2023/08/03 08:57:12;;;;;;;;;;;18.80;99.90;;;;;;5017384;28;20396;-79
2023/08/03 08:59:56;;;;;;;;;;;18.80;99.90;;;;;;5017326;28;20389;-80
2023/08/03 09:02:25;;;;;;;;;;;18.80;99.90;;;;;;5017568;28;19927;-78
2023/08/03 09:05:07;;;;;;;;;;;18.80;99.90;;;;;;5017676;28;19926;-82
2023/08/03 09:07:32;;;;;;;;;;;18.90;99.90;;;;;;4999872;28;19983;-81
2023/08/03 09:10:01;;;;;;;;;;;19.00;99.90;;;;;;5018068;28;19965;-80
2023/08/03 09:12:27;;;;;;;;;;;19.10;99.90;;;;;;5017104;28;19922;-78
2023/08/03 09:14:55;;;;;;;;;;;19.20;99.90;;;;;;5017526;28;19928;-80
2023/08/03 09:17:24;;;;;;;;;;;19.10;99.90;;;;;;4999681;28;20357;-81
2023/08/03 09:19:50;;;;;;;;;;;19.10;99.90;;;;;;5017947;28;19932;-79
2023/08/03 09:22:17;;;;;;;;;;;19.10;99.90;;;;;;5017739;28;20258;-80
2023/08/03 09:24:46;;;;;;;;;;;19.10;99.90;;;;;;5000150;28;19925;-78
2023/08/03 09:27:16;;;;;;;;;;;19.20;99.90;;;;;;5017131;28;20414;-80
2023/08/03 09:29:42;;;;;;;;;;;19.30;99.90;;;;;;5017356;28;20008;-79
2023/08/03 09:32:08;;;;;;;;;;;19.30;99.90;;;;;;5017290;28;19922;-80
2023/08/03 09:34:44;;;;;;;;;;;19.50;99.90;;;;;;5016980;28;19976;-81
2023/08/03 09:37:10;;;;;;;;;;;19.60;99.90;;;;;;4999887;28;19922;-80
2023/08/03 09:39:38;;;;;;;;;;;19.70;99.90;;;;;;4999578;28;20012;-79
2023/08/03 09:42:07;;;;;;;;;;;19.80;99.90;;;;;;4999543;28;19960;-80
2023/08/03 09:44:36;;;;;;;;;;;19.80;99.90;;;;;;5016771;28;20012;-80
2023/08/03 09:47:03;;;;;;;;;;;19.80;99.90;;;;;;5000311;28;19921;-80
2023/08/03 09:49:31;;;;;;;;;;;19.90;99.90;;;;;;5017221;28;19993;-80
2023/08/03 09:51:57;;;;;;;;;;;19.90;99.90;;;;;;5017199;28;19943;-80
2023/08/03 09:54:35;;;;;;;;;;;19.90;99.90;;;;;;5016797;28;20365;-78
2023/08/03 09:57:03;;;;;;;;;;;19.80;99.90;;;;;;4999440;28;20450;-81
2023/08/03 09:59:32;;;;;;;;;;;19.90;99.90;;;;;;5016532;28;20036;-79
2023/08/03 10:01:59;;;;;;;;;;;20.00;99.90;;;;;;5016229;28;20369;-80
2023/08/03 10:04:27;;;;;;;;;;;20.00;99.90;;;;;;5016669;28;19932;-79
2023/08/03 10:06:57;;;;;;;;;;;20.10;99.90;;;;;;5016405;28;19921;-80
2023/08/03 10:09:27;;;;;;;;;;;20.10;99.90;;;;;;5016862;28;19949;-81
2023/08/03 10:11:55;;;;;;;;;;;20.30;99.90;;;;;;4998905;28;19982;-80
2023/08/03 10:14:22;;;;;;;;;;;20.40;99.90;;;;;;4998766;28;19922;-81
2023/08/03 10:16:48;;;;;;;;;;;20.50;99.90;;;;;;5016388;28;20325;-81
2023/08/03 10:19:15;;;;;;;;;;;20.70;99.90;;;;;;5016119;28;19921;-76
2023/08/03 10:21:41;;;;;;;;;;;20.70;99.90;;;;;;5016021;28;20068;-78
2023/08/03 10:24:10;;;;;;;;;;;20.50;99.90;;;;;;5015561;28;19977;-79
2023/08/03 10:26:36;;;;;;;;;;;20.50;99.90;;;;;;4998358;28;20428;-79
2023/08/03 10:29:03;;;;;;;;;;;20.50;99.90;;;;;;5016202;28;20016;-78
2023/08/03 10:31:29;;;;;;;;;;;20.50;99.90;;;;;;5015826;28;19921;-80
2023/08/03 10:33:55;;;;;;;;;;;20.50;99.90;;;;;;5015470;28;19928;-79
2023/08/03 10:36:27;;;;;;;;;;;20.60;99.90;;;;;;5015851;28;19921;-80
2023/08/03 10:38:53;;;;;;;;;;;20.60;99.90;;;;;;5015739;28;19929;-80
2023/08/03 10:41:22;;;;;;;;;;;20.60;99.90;;;;;;5015649;28;19964;-81
2023/08/03 10:44:14;;;;;;;;;;;20.70;99.90;;;;;;4998112;28;19993;-80
2023/08/03 10:46:54;;;;;;;;;;;20.80;99.90;;;;;;5012673;28;19922;-80
2023/08/03 10:49:27;;;;;;;;;;;20.70;99.90;;;;;;4997780;28;19921;-79
2023/08/03 10:51:54;;;;;;;;;;;20.50;99.90;;;;;;5015124;28;19929;-80
2023/08/03 10:54:20;;;;;;;;;;;20.40;99.90;;;;;;5015501;28;20012;-77
2023/08/03 10:57:04;;;;;;;;;;;20.10;99.90;;;;;;5015312;28;19929;-79
2023/08/03 10:59:39;;;;;;;;;;;20.00;99.90;;;;;;5015381;28;19926;-79
2023/08/03 11:02:10;;;;;;;;;;;20.10;99.90;;;;;;5014883;28;19985;-80
2023/08/03 11:04:36;;;;;;;;;;;20.30;99.90;;;;;;5015154;28;20036;-80
2023/08/03 11:07:02;;;;;;;;;;;20.50;99.90;;;;;;5014864;28;19921;-79
2023/08/03 11:09:29;;;;;;;;;;;20.60;99.90;;;;;;5015924;28;19922;-80
2023/08/03 11:11:57;;;;;;;;;;;20.50;99.90;;;;;;4981431;28;19922;-80
2023/08/03 11:14:23;;;;;;;;;;;20.50;99.90;;;;;;5015370;28;19944;-79
2023/08/03 11:16:48;;;;;;;;;;;20.40;99.90;;;;;;5014989;28;19921;-79
2023/08/03 11:19:14;;;;;;;;;;;20.40;99.90;;;;;;4997764;28;19925;-82
2023/08/03 11:21:42;;;;;;;;;;;20.40;99.90;;;;;;5015142;28;19921;-81
2023/08/03 11:24:09;;;;;;;;;;;20.50;99.90;;;;;;5014773;28;20388;-80
2023/08/03 11:26:35;;;;;;;;;;;20.50;99.90;;;;;;5014984;28;19928;-80
2023/08/03 11:29:02;;;;;;;;;;;20.50;99.90;;;;;;5015227;28;19922;-79
2023/08/03 11:31:28;;;;;;;;;;;20.40;99.90;;;;;;4996915;28;19969;-80
2023/08/03 11:33:54;;;;;;;;;;;20.30;99.90;;;;;;5014721;28;19987;-78
2023/08/03 11:36:24;;;;;;;;;;;20.30;99.90;;;;;;4998420;28;20004;-80
2023/08/03 11:38:50;;;;;;;;;;;20.10;99.90;;;;;;5015509;28;20002;-81
2023/08/03 11:41:17;;;;;;;;;;;20.10;99.90;;;;;;5015132;28;19926;-80
2023/08/03 11:44:11;;;;;;;;;;;;;;;;;;;;;
2023/08/03 11:46:31;;;;;;;;;;;20.00;99.90;;;;;;4994854;28;19921;-80
2023/08/03 11:48:57;;;;;;;;;;;19.90;99.90;;;;;;5014534;28;19922;-80
2023/08/03 11:51:30;;;;;;;;;;;19.90;99.90;;;;;;4996787;28;19928;-80
2023/08/03 11:53:55;;;;;;;;;;;20.00;99.90;;;;;;4997102;28;19933;-79
2023/08/03 11:56:24;;;;;;;;;;;20.00;99.90;;;;;;4996518;28;19921;-78
2023/08/03 11:58:50;;;;;;;;;;;20.00;99.90;;;;;;4997444;28;20293;-79
2023/08/03 12:01:15;;;;;;;;;;;20.00;99.90;;;;;;4997358;28;19925;-80
2023/08/03 12:03:41;;;;;;;;;;;20.00;99.90;;;;;;5013860;28;19925;-79
2023/08/03 12:06:13;;;;;;;;;;;20.00;99.90;;;;;;5014486;28;19929;-77
2023/08/03 12:08:40;;;;;;;;;;;20.10;99.90;;;;;;4981235;28;20361;-79
2023/08/03 12:11:05;;;;;;;;;;;20.10;99.90;;;;;;5014180;28;19926;-78
2023/08/03 12:13:31;;;;;;;;;;;20.10;99.90;;;;;;4996883;28;20318;-80
2023/08/03 12:16:00;;;;;;;;;;;20.00;99.90;;;;;;4999732;28;20291;-77
2023/08/03 12:18:29;;;;;;;;;;;20.10;99.90;;;;;;5000561;28;19925;-79
2023/08/03 12:20:54;;;;;;;;;;;20.10;99.90;;;;;;5000722;28;19921;-78
2023/08/03 12:23:20;;;;;;;;;;;20.30;99.90;;;;;;5002287;28;20024;-79
2023/08/03 12:25:46;;;;;;;;;;;20.30;99.90;;;;;;5000472;28;19925;-79
2023/08/03 12:28:12;;;;;;;;;;;20.40;99.90;;;;;;5018066;28;20296;-79
2023/08/03 12:30:38;;;;;;;;;;;20.30;99.90;;;;;;5000561;28;19921;-78
2023/08/03 12:33:08;;;;;;;;;;;20.10;99.90;;;;;;5000134;28;19922;-80
2023/08/03 12:35:34;;;;;;;;;;;20.00;99.90;;;;;;5000084;28;20451;-79
2023/08/03 12:37:59;;;;;;;;;;;19.90;99.90;;;;;;5000859;28;20013;-79
2023/08/03 12:40:25;;;;;;;;;;;19.90;99.90;;;;;;5000063;28;20091;-79
2023/08/03 12:42:51;;;;;;;;;;;19.70;99.90;;;;;;4984094;28;20388;-78
2023/08/03 12:45:16;;;;;;;;;;;19.70;99.90;;;;;;5001073;28;19921;-76
2023/08/03 12:47:42;;;;;;;;;;;19.60;99.90;;;;;;5000309;28;19927;-77
2023/08/03 12:50:08;;;;;;;;;;;19.60;99.90;;;;;;5000588;28;20347;-78
2023/08/03 12:52:34;;;;;;;;;;;19.60;99.90;;;;;;5000425;28;19928;-79
2023/08/03 12:54:59;;;;;;;;;;;19.60;99.90;;;;;;5000674;28;20012;-78
2023/08/03 12:57:25;;;;;;;;;;;19.60;99.90;;;;;;5017758;28;20408;-78
2023/08/03 12:59:51;;;;;;;;;;;19.60;99.90;;;;;;5017405;28;20365;-79
2023/08/03 13:02:17;;;;;;;;;;;19.50;99.90;;;;;;5017891;28;19925;-79
2023/08/03 13:04:43;;;;;;;;;;;19.40;99.90;;;;;;5017449;28;19925;-78
2023/08/03 13:07:09;;;;;;;;;;;19.30;99.90;;;;;;5000438;28;19922;-81
2023/08/03 13:09:36;;;;;;;;;;;19.10;99.90;;;;;;5017349;28;20016;-79
2023/08/03 13:12:01;;;;;;;;;;;19.00;99.90;;;;;;5017357;28;19949;-80
2023/08/03 13:14:27;;;;;;;;;;;18.80;99.90;;;;;;5017190;28;19921;-78
2023/08/03 13:16:52;;;;;;;;;;;18.80;99.90;;;;;;5017316;28;19921;-77
2023/08/03 13:19:18;;;;;;;;;;;18.70;99.90;;;;;;5017303;28;19972;-79
2023/08/03 13:21:44;;;;;;;;;;;18.60;99.90;;;;;;4999335;28;19980;-78
2023/08/03 13:24:09;;;;;;;;;;;18.60;99.90;;;;;;5016862;28;19976;-79
2023/08/03 13:26:35;;;;;;;;;;;18.50;99.90;;;;;;5005719;28;20041;-80
2023/08/03 13:29:01;;;;;;;;;;;18.50;99.90;;;;;;4997608;28;19922;-80
2023/08/03 13:31:26;;;;;;;;;;;18.40;99.90;;;;;;4997808;28;19922;-78
2023/08/03 13:33:53;;;;;;;;;;;18.40;99.90;;;;;;4980455;28;20024;-80
2023/08/03 13:36:19;;;;;;;;;;;18.30;99.90;;;;;;4996845;28;19922;-80
2023/08/03 13:38:44;;;;;;;;;;;18.20;99.90;;;;;;4979407;28;19929;-80
2023/08/03 13:41:14;;;;;;;;;;;18.10;99.90;;;;;;4979380;28;19922;-80
2023/08/03 13:43:41;;;;;;;;;;;18.10;99.90;;;;;;4996967;28;19932;-80
2023/08/03 13:46:06;;;;;;;;;;;18.10;99.90;;;;;;4979958;28;19929;-79
2023/08/03 13:48:32;;;;;;;;;;;18.20;99.90;;;;;;4979947;28;19921;-80
2023/08/03 13:50:58;;;;;;;;;;;18.20;99.90;;;;;;4996925;28;19922;-80
2023/08/03 13:53:24;;;;;;;;;;;18.30;99.90;;;;;;4997082;28;20370;-80
2023/08/03 13:55:53;;;;;;;;;;;18.30;99.90;;;;;;4980622;28;19926;-82
2023/08/03 13:58:18;;;;;;;;;;;18.40;99.90;;;;;;4963518;28;19929;-75
2023/08/03 14:00:44;;;;;;;;;;;18.50;99.90;;;;;;4964545;28;19922;-79
2023/08/03 14:03:10;;;;;;;;;;;18.50;99.90;;;;;;5008115;28;19984;-82
2023/08/03 14:05:48;;;;;;;;;;;18.50;99.90;;;;;;4999555;28;19925;-89
2023/08/03 14:08:13;;;;;;;;;;;18.50;99.90;;;;;;5016391;28;20332;-80
2023/08/03 14:10:39;;;;;;;;;;;18.50;99.90;;;;;;5015925;28;19922;-80
2023/08/03 14:13:04;;;;;;;;;;;18.50;99.90;;;;;;5016341;28;19967;-80
2023/08/03 14:15:30;;;;;;;;;;;18.40;99.90;;;;;;5016424;28;20273;-81
2023/08/03 14:17:55;;;;;;;;;;;18.30;99.90;;;;;;4998595;28;20312;-79
2023/08/03 14:20:21;;;;;;;;;;;18.30;99.90;;;;;;4998745;28;20020;-80
2023/08/03 14:22:47;;;;;;;;;;;18.40;99.90;;;;;;4998507;28;19921;-81
2023/08/03 14:25:15;;;;;;;;;;;18.50;99.90;;;;;;5016231;28;19925;-79
2023/08/03 14:27:44;;;;;;;;;;;18.60;99.90;;;;;;5016398;28;19922;-79
2023/08/03 14:30:15;;;;;;;;;;;18.70;99.90;;;;;;5016223;28;19928;-80
2023/08/03 14:32:40;;;;;;;;;;;18.80;99.90;;;;;;5016193;28;19921;-80
2023/08/03 14:35:06;;;;;;;;;;;18.90;99.90;;;;;;5015483;28;19922;-77
2023/08/03 14:37:32;;;;;;;;;;;19.00;99.90;;;;;;4997747;28;20266;-80
2023/08/03 14:39:59;;;;;;;;;;;19.20;99.90;;;;;;5016010;28;20431;-82
2023/08/03 14:42:26;;;;;;;;;;;19.20;99.90;;;;;;5015769;28;20380;-79
2023/08/03 14:44:51;;;;;;;;;;;19.20;99.90;;;;;;5015819;28;19932;-79
2023/08/03 14:47:17;;;;;;;;;;;19.30;99.90;;;;;;5015959;28;19925;-80
2023/08/03 14:49:43;;;;;;;;;;;19.30;99.90;;;;;;5015733;28;20059;-79
2023/08/03 14:52:08;;;;;;;;;;;19.30;99.90;;;;;;5015619;28;19921;-80
2023/08/03 14:54:34;;;;;;;;;;;19.20;99.90;;;;;;5015624;28;19975;-79
2023/08/03 14:57:00;;;;;;;;;;;19.20;99.90;;;;;;4998693;28;19929;-81
2023/08/03 14:59:26;;;;;;;;;;;19.10;99.90;;;;;;5015638;28;19932;-79
2023/08/03 15:01:52;;;;;;;;;;;19.10;99.90;;;;;;5014868;28;20351;-78
2023/08/03 15:04:17;;;;;;;;;;;19.10;99.90;;;;;;5014897;28;19930;-78
2023/08/03 15:06:43;;;;;;;;;;;19.10;99.90;;;;;;5015154;28;19968;-80
2023/08/03 15:09:10;;;;;;;;;;;19.00;99.90;;;;;;4996747;28;19944;-80
2023/08/03 15:11:35;;;;;;;;;;;19.00;99.90;;;;;;5014823;28;19929;-78
2023/08/03 15:14:01;;;;;;;;;;;19.00;99.90;;;;;;5015011;28;19928;-77
2023/08/03 15:16:27;;;;;;;;;;;19.00;99.90;;;;;;5014995;28;19922;-78
2023/08/03 15:18:53;;;;;;;;;;;19.00;99.90;;;;;;5014940;28;19929;-78
2023/08/03 15:21:20;;;;;;;;;;;19.00;99.90;;;;;;4997028;28;20411;-79
2023/08/03 15:23:46;;;;;;;;;;;19.00;99.90;;;;;;5014927;28;19988;-78
2023/08/03 15:26:12;;;;;;;;;;;19.00;99.90;;;;;;5014872;28;19928;-77
2023/08/03 15:28:40;;;;;;;;;;;19.10;99.90;;;;;;5013822;28;20175;-78
2023/08/03 15:31:06;;;;;;;;;;;19.30;99.90;;;;;;5014766;28;19973;-79
2023/08/03 15:33:34;;;;;;;;;;;19.50;99.90;;;;;;5014644;28;19921;-78
2023/08/03 15:36:04;;;;;;;;;;;19.50;99.90;;;;;;5014334;28;19921;-78
2023/08/03 15:38:30;;;;;;;;;;;19.60;99.90;;;;;;5014521;28;19929;-79
2023/08/03 15:40:56;;;;;;;;;;;19.60;99.90;;;;;;5014605;28;20281;-78
2023/08/03 15:43:22;;;;;;;;;;;19.60;99.90;;;;;;5014866;28;19926;-80
2023/08/03 15:45:47;;;;;;;;;;;19.60;99.90;;;;;;5014488;28;20021;-79
2023/08/03 15:48:14;;;;;;;;;;;19.60;99.90;;;;;;4996791;28;19925;-78
2023/08/03 15:50:46;;;;;;;;;;;19.50;99.90;;;;;;5014089;28;19921;-79
2023/08/03 15:53:12;;;;;;;;;;;19.40;99.90;;;;;;5009634;28;19922;-77
2023/08/03 15:55:38;;;;;;;;;;;19.30;99.90;;;;;;5014182;28;19944;-75
2023/08/03 15:58:07;;;;;;;;;;;19.20;99.90;;;;;;4980799;28;19922;-79
2023/08/03 16:00:36;;;;;;;;;;;19.10;99.90;;;;;;4996504;28;19929;-85
2023/08/03 16:03:08;;;;;;;;;;;19.00;99.90;;;;;;4981123;28;19921;-87
2023/08/03 16:05:37;;;;;;;;;;;19.00;99.90;;;;;;4980226;28;19921;-77
2023/08/03 16:08:03;;;;;;;;;;;19.00;99.90;;;;;;5013962;28;19921;-78
2023/08/03 16:10:28;;;;;;;;;;;19.20;99.90;;;;;;4996646;28;19921;-77
2023/08/03 16:12:54;;;;;;;;;;;19.40;99.90;;;;;;5014027;28;19922;-77
2023/08/03 16:15:20;;;;;;;;;;;19.40;99.90;;;;;;4996781;28;19921;-79
2023/08/03 16:17:45;;;;;;;;;;;19.40;99.90;;;;;;5013874;28;20435;-78
2023/08/03 16:20:11;;;;;;;;;;;19.20;99.90;;;;;;5014146;28;19965;-78
2023/08/03 16:22:39;;;;;;;;;;;19.10;99.90;;;;;;4996946;28;19922;-77
2023/08/03 16:25:05;;;;;;;;;;;18.90;99.90;;;;;;5014154;28;19929;-78
2023/08/03 16:27:32;;;;;;;;;;;18.80;99.90;;;;;;5014252;28;20330;-78
2023/08/03 16:29:58;;;;;;;;;;;18.60;99.90;;;;;;5014082;28;19921;-78
2023/08/03 16:32:24;;;;;;;;;;;18.60;99.90;;;;;;5013639;28;19928;-78
2023/08/03 16:34:49;;;;;;;;;;;18.50;99.90;;;;;;4996203;28;19929;-77
2023/08/03 16:37:14;;;;;;;;;;;18.40;99.90;;;;;;4996383;28;19929;-76
2023/08/03 16:39:40;;;;;;;;;;;18.30;99.90;;;;;;5014103;28;19922;-76
2023/08/03 16:42:06;;;;;;;;;;;18.20;99.90;;;;;;4991873;28;19925;-76
2023/08/03 16:44:31;;;;;;;;;;;18.20;99.90;;;;;;4993021;28;19948;-78
2023/08/03 16:46:57;;;;;;;;;;;18.10;99.90;;;;;;4976849;28;19929;-78
2023/08/03 16:49:22;;;;;;;;;;;18.20;99.90;;;;;;4976649;28;19922;-76
2023/08/03 16:51:48;;;;;;;;;;;18.10;99.90;;;;;;4976678;28;19922;-77
2023/08/03 16:54:13;;;;;;;;;;;18.10;99.90;;;;;;4977019;28;20008;-77
2023/08/03 16:56:39;;;;;;;;;;;18.00;99.90;;;;;;4976620;28;19922;-78
2023/08/03 16:59:07;;;;;;;;;;;18.00;99.90;;;;;;4976941;28;19981;-78
2023/08/03 17:01:33;;;;;;;;;;;18.00;99.90;;;;;;4978674;28;19921;-79
2023/08/03 17:03:58;;;;;;;;;;;18.00;99.90;;;;;;4963932;28;20293;-79
2023/08/03 17:06:24;;;;;;;;;;;18.10;99.90;;;;;;4980111;28;20281;-79
2023/08/03 17:08:50;;;;;;;;;;;18.10;99.90;;;;;;4996347;28;19944;-78
2023/08/03 17:11:15;;;;;;;;;;;18.10;99.90;;;;;;4979944;28;19925;-79
2023/08/03 17:13:41;;;;;;;;;;;18.10;99.90;;;;;;4980369;28;19925;-78
2023/08/03 17:16:06;;;;;;;;;;;18.20;99.90;;;;;;4979886;28;19921;-78